createdAt,value
2023-04-12T00:00:30.678Z,1015.00
2023-04-12T00:01:31.718Z,1012.00
2023-04-12T00:02:30.862Z,1012.00
2023-04-12T00:03:31.030Z,1013.00
2023-04-12T00:04:32.056Z,1012.00
2023-04-12T00:05:31.908Z,1010.00
2023-04-12T00:06:31.942Z,1014.00
2023-04-12T00:07:32.004Z,1015.00
2023-04-12T00:08:32.052Z,1013.00
2023-04-12T00:09:32.106Z,1011.00
2023-04-12T00:10:32.141Z,1012.00
2023-04-12T00:11:31.191Z,1011.00
2023-04-12T00:12:32.226Z,1008.00
2023-04-12T00:13:31.268Z,1008.00
2023-04-12T00:14:31.339Z,1005.00
2023-04-12T00:15:32.377Z,1008.00
2023-04-12T00:16:31.495Z,1009.00
2023-04-12T00:17:32.531Z,1003.00
2023-04-12T00:18:32.577Z,1001.00
2023-04-12T00:19:32.564Z,1002.00
2023-04-12T00:20:32.603Z,1000.00
2023-04-12T00:21:32.666Z,1000.00
2023-04-12T00:22:32.719Z,1001.00
2023-04-12T00:23:32.754Z,1000.00
2023-04-12T00:24:32.820Z,1003.00
2023-04-12T00:25:31.847Z,1006.00
2023-04-12T00:26:32.900Z,1002.00
2023-04-12T00:27:31.980Z,1002.00
2023-04-12T00:28:32.023Z,1003.00
2023-04-12T00:29:32.063Z,1003.00
2023-04-12T00:30:33.100Z,1002.00
2023-04-12T00:31:33.173Z,1001.00
2023-04-12T00:32:32.214Z,1000.00
2023-04-12T00:33:32.256Z,999.00
2023-04-12T00:34:33.400Z,999.00
2023-04-12T00:35:33.341Z,995.00
2023-04-12T00:36:33.367Z,994.00
2023-04-12T00:37:33.416Z,993.00
2023-04-12T00:38:33.460Z,991.00
2023-04-12T00:39:33.500Z,991.00
2023-04-12T00:40:33.552Z,988.00
2023-04-12T00:41:33.587Z,987.00
2023-04-12T00:42:33.624Z,988.00
2023-04-12T00:43:32.676Z,987.00
2023-04-12T00:44:33.722Z,989.00
2023-04-12T00:45:33.776Z,986.00
2023-04-12T00:46:33.846Z,985.00
2023-04-12T00:47:32.895Z,985.00
2023-04-12T00:48:33.893Z,984.00
2023-04-12T00:49:33.932Z,982.00
2023-04-12T00:50:33.026Z,978.00
2023-04-12T00:51:33.022Z,976.00
2023-04-12T00:52:34.094Z,977.00
2023-04-12T00:53:34.114Z,974.00
2023-04-12T00:54:34.146Z,971.00
2023-04-12T00:55:33.177Z,970.00
2023-04-12T00:56:34.216Z,969.00
2023-04-12T00:57:33.250Z,968.00
2023-04-12T00:58:34.339Z,970.00
2023-04-12T00:59:34.337Z,970.00
2023-04-12T01:00:33.392Z,968.00
2023-04-12T01:01:34.410Z,967.00
2023-04-12T01:02:34.610Z,967.00
2023-04-12T01:03:34.553Z,971.00
2023-04-12T01:04:33.516Z,969.00
2023-04-12T01:05:34.597Z,971.00
2023-04-12T01:06:34.637Z,970.00
2023-04-12T01:07:34.639Z,971.00
2023-04-12T01:08:33.687Z,970.00
2023-04-12T01:09:34.717Z,969.00
2023-04-12T01:10:34.816Z,967.00
2023-04-12T01:11:33.833Z,965.00
2023-04-12T01:12:33.848Z,966.00
2023-04-12T01:13:33.894Z,965.00
2023-04-12T01:14:33.926Z,962.00
2023-04-12T01:15:34.953Z,960.00
2023-04-12T01:16:35.060Z,955.00
2023-04-12T01:17:34.103Z,954.00
2023-04-12T01:18:35.062Z,954.00
2023-04-12T01:19:35.145Z,956.00
2023-04-12T01:20:36.188Z,952.00
2023-04-12T01:21:35.160Z,950.00
2023-04-12T01:22:35.206Z,951.00
2023-04-12T01:23:34.259Z,951.00
2023-04-12T01:24:34.266Z,952.00
2023-04-12T01:25:35.299Z,953.00
2023-04-12T01:26:35.410Z,953.00
2023-04-12T01:27:34.354Z,959.00
2023-04-12T01:28:35.392Z,958.00
2023-04-12T01:29:35.490Z,953.00
2023-04-12T01:30:34.477Z,948.00
2023-04-12T01:31:35.671Z,945.00
2023-04-12T01:32:35.583Z,945.00
2023-04-12T01:33:35.602Z,948.00
2023-04-12T01:34:35.686Z,948.00
2023-04-12T01:35:35.807Z,948.00
2023-04-12T01:36:35.684Z,946.00
2023-04-12T01:37:35.739Z,943.00
2023-04-12T01:38:34.799Z,941.00
2023-04-12T01:39:35.829Z,940.00
2023-04-12T01:40:35.831Z,934.00
2023-04-12T01:41:35.981Z,933.00
2023-04-12T01:42:35.911Z,930.00
2023-04-12T01:43:35.955Z,929.00
2023-04-12T01:44:36.039Z,928.00
2023-04-12T01:45:35.055Z,930.00
2023-04-12T01:46:36.101Z,927.00
2023-04-12T01:47:36.207Z,932.00
2023-04-12T01:48:36.150Z,933.00
2023-04-12T01:49:35.186Z,932.00
2023-04-12T01:50:36.246Z,931.00
2023-04-12T01:51:36.301Z,929.00
2023-04-12T01:52:36.317Z,933.00
2023-04-12T01:53:35.384Z,935.00
2023-04-12T01:54:35.407Z,931.00
2023-04-12T01:55:35.415Z,931.00
2023-04-12T01:56:37.193Z,934.00
2023-04-12T01:57:35.463Z,933.00
2023-04-12T01:58:36.427Z,934.00
2023-04-12T01:59:36.436Z,931.00
2023-04-12T02:00:36.442Z,929.00
2023-04-12T02:01:36.537Z,928.00
2023-04-12T02:02:35.562Z,929.00
2023-04-12T02:03:35.512Z,929.00
2023-04-12T02:04:36.376Z,927.00
2023-04-12T02:05:36.386Z,929.00
2023-04-12T02:06:36.382Z,927.00
2023-04-12T02:07:36.363Z,925.00
2023-04-12T02:08:36.379Z,922.00
2023-04-12T02:09:36.340Z,921.00
2023-04-12T02:10:35.383Z,923.00
2023-04-12T02:11:35.328Z,923.00
2023-04-12T02:12:35.342Z,920.00
2023-04-12T02:13:35.327Z,918.00
2023-04-12T02:14:36.296Z,918.00
2023-04-12T02:15:36.320Z,919.00
2023-04-12T02:16:35.300Z,920.00
2023-04-12T02:17:36.340Z,918.00
2023-04-12T02:18:36.279Z,915.00
2023-04-12T02:19:36.264Z,916.00
2023-04-12T02:20:36.283Z,917.00
2023-04-12T02:21:36.254Z,916.00
2023-04-12T02:22:35.241Z,916.00
2023-04-12T02:23:35.267Z,915.00
2023-04-12T02:24:36.211Z,915.00
2023-04-12T02:25:36.219Z,917.00
2023-04-12T02:26:36.294Z,918.00
2023-04-12T02:27:35.202Z,914.00
2023-04-12T02:28:35.200Z,914.00
2023-04-12T02:29:36.226Z,912.00
2023-04-12T02:30:36.222Z,915.00
2023-04-12T02:31:35.183Z,915.00
2023-04-12T02:32:35.195Z,914.00
2023-04-12T02:33:36.172Z,914.00
2023-04-12T02:34:36.206Z,914.00
2023-04-12T02:35:36.291Z,916.00
2023-04-12T02:36:35.304Z,916.00
2023-04-12T02:37:36.323Z,912.00
2023-04-12T02:38:36.356Z,913.00
2023-04-12T02:39:36.384Z,916.00
2023-04-12T02:40:36.440Z,916.00
2023-04-12T02:41:36.499Z,918.00
2023-04-12T02:42:35.697Z,916.00
2023-04-12T02:43:35.527Z,912.00
2023-04-12T02:44:35.560Z,913.00
2023-04-12T02:45:36.629Z,912.00
2023-04-12T02:46:35.738Z,914.00
2023-04-12T02:47:36.733Z,915.00
2023-04-12T02:48:36.683Z,913.00
2023-04-12T02:49:36.722Z,911.00
2023-04-12T02:50:36.793Z,909.00
2023-04-12T02:51:36.795Z,907.00
2023-04-12T02:52:35.839Z,907.00
2023-04-12T02:53:36.904Z,904.00
2023-04-12T02:54:36.883Z,902.00
2023-04-12T02:55:36.949Z,903.00
2023-04-12T02:56:35.940Z,904.00
2023-04-12T02:57:36.996Z,907.00
2023-04-12T02:58:37.048Z,905.00
2023-04-12T02:59:37.060Z,902.00
2023-04-12T03:00:37.108Z,902.00
2023-04-12T03:01:36.168Z,905.00
2023-04-12T03:02:37.299Z,904.00
2023-04-12T03:03:36.241Z,904.00
2023-04-12T03:04:37.201Z,906.00
2023-04-12T03:05:37.264Z,906.00
2023-04-12T03:06:37.235Z,907.00
2023-04-12T03:07:37.283Z,906.00
2023-04-12T03:08:36.311Z,905.00
2023-04-12T03:09:37.309Z,904.00
2023-04-12T03:10:37.379Z,904.00
2023-04-12T03:11:37.398Z,905.00
2023-04-12T03:12:37.420Z,907.00
2023-04-12T03:13:37.466Z,904.00
2023-04-12T03:14:37.502Z,900.00
2023-04-12T03:15:37.599Z,894.00
2023-04-12T03:16:37.542Z,891.00
2023-04-12T03:17:37.567Z,893.00
2023-04-12T03:18:37.634Z,890.00
2023-04-12T03:19:36.639Z,891.00
2023-04-12T03:20:37.703Z,890.00
2023-04-12T03:21:37.699Z,891.00
2023-04-12T03:22:36.738Z,890.00
2023-04-12T03:23:37.744Z,890.00
2023-04-12T03:24:37.784Z,889.00
2023-04-12T03:25:37.834Z,888.00
2023-04-12T03:26:37.833Z,888.00
2023-04-12T03:27:37.852Z,888.00
2023-04-12T03:28:37.910Z,888.00
2023-04-12T03:29:37.935Z,888.00
2023-04-12T03:30:37.976Z,889.00
2023-04-12T03:31:37.055Z,892.00
2023-04-12T03:32:37.043Z,888.00
2023-04-12T03:33:38.075Z,886.00
2023-04-12T03:34:38.076Z,883.00
2023-04-12T03:35:38.174Z,883.00
2023-04-12T03:36:37.145Z,885.00
2023-04-12T03:37:37.155Z,886.00
2023-04-12T03:38:37.164Z,887.00
2023-04-12T03:39:38.201Z,889.00
2023-04-12T03:40:37.252Z,886.00
2023-04-12T03:41:37.253Z,883.00
2023-04-12T03:42:38.322Z,882.00
2023-04-12T03:43:38.307Z,881.00
2023-04-12T03:44:38.332Z,878.00
2023-04-12T03:45:38.388Z,879.00
2023-04-12T03:46:37.537Z,880.00
2023-04-12T03:47:37.436Z,880.00
2023-04-12T03:48:38.458Z,879.00
2023-04-12T03:49:37.453Z,877.00
2023-04-12T03:50:38.483Z,877.00
2023-04-12T03:51:38.519Z,877.00
2023-04-12T03:52:38.563Z,875.00
2023-04-12T03:53:38.560Z,877.00
2023-04-12T03:54:37.588Z,878.00
2023-04-12T03:55:38.601Z,877.00
2023-04-12T03:56:38.766Z,878.00
2023-04-12T03:57:38.673Z,880.00
2023-04-12T03:58:38.692Z,880.00
2023-04-12T03:59:38.750Z,877.00
2023-04-12T04:00:38.744Z,876.00
2023-04-12T04:01:38.856Z,876.00
2023-04-12T04:02:38.869Z,875.00
2023-04-12T04:03:38.021Z,875.00
2023-04-12T04:04:38.077Z,877.00
2023-04-12T04:05:38.914Z,877.00
2023-04-12T04:06:38.924Z,880.00
2023-04-12T04:07:38.931Z,880.00
2023-04-12T04:08:38.968Z,878.00
2023-04-12T04:09:39.010Z,874.00
2023-04-12T04:10:39.034Z,875.00
2023-04-12T04:11:39.100Z,876.00
2023-04-12T04:12:39.108Z,873.00
2023-04-12T04:13:38.130Z,872.00
2023-04-12T04:14:38.165Z,876.00
2023-04-12T04:15:39.197Z,878.00
2023-04-12T04:16:39.295Z,879.00
2023-04-12T04:17:38.300Z,881.00
2023-04-12T04:18:39.297Z,876.00
2023-04-12T04:19:38.335Z,878.00
2023-04-12T04:20:39.333Z,879.00
2023-04-12T04:21:39.368Z,879.00
2023-04-12T04:22:38.403Z,881.00
2023-04-12T04:23:38.445Z,880.00
2023-04-12T04:24:38.485Z,881.00
2023-04-12T04:25:38.701Z,883.00
2023-04-12T04:26:38.516Z,883.00
2023-04-12T04:27:38.708Z,882.00
2023-04-12T04:28:39.595Z,881.00
2023-04-12T04:29:39.648Z,882.00
2023-04-12T04:30:39.656Z,881.00
2023-04-12T04:31:39.758Z,879.00
2023-04-12T04:32:39.743Z,879.00
2023-04-12T04:33:39.739Z,878.00
2023-04-12T04:34:39.811Z,877.00
2023-04-12T04:35:39.835Z,875.00
2023-04-12T04:36:38.869Z,877.00
2023-04-12T04:37:38.891Z,875.00
2023-04-12T04:38:39.922Z,874.00
2023-04-12T04:39:39.944Z,874.00
2023-04-12T04:40:38.968Z,876.00
2023-04-12T04:41:40.016Z,874.00
2023-04-12T04:42:39.055Z,872.00
2023-04-12T04:43:40.168Z,870.00
2023-04-12T04:44:39.103Z,871.00
2023-04-12T04:45:40.141Z,871.00
2023-04-12T04:46:39.173Z,868.00
2023-04-12T04:47:39.219Z,865.00
2023-04-12T04:48:40.277Z,864.00
2023-04-12T04:49:40.261Z,858.00
2023-04-12T04:50:40.302Z,855.00
2023-04-12T04:51:40.318Z,851.00
2023-04-12T04:52:40.327Z,849.00
2023-04-12T04:53:40.361Z,846.00
2023-04-12T04:54:40.375Z,845.00
2023-04-12T04:55:40.464Z,841.00
2023-04-12T04:56:40.421Z,835.00
2023-04-12T04:57:40.462Z,833.00
2023-04-12T04:58:40.484Z,833.00
2023-04-12T04:59:40.527Z,831.00
2023-04-12T05:00:39.565Z,827.00
2023-04-12T05:01:40.778Z,824.00
2023-04-12T05:02:40.720Z,823.00
2023-04-12T05:03:39.763Z,821.00
2023-04-12T05:04:40.664Z,819.00
2023-04-12T05:05:40.721Z,821.00
2023-04-12T05:06:40.752Z,821.00
2023-04-12T05:07:40.760Z,820.00
2023-04-12T05:08:39.763Z,820.00
2023-04-12T05:09:40.868Z,816.00
2023-04-12T05:10:40.813Z,817.00
2023-04-12T05:11:39.842Z,819.00
2023-04-12T05:12:40.872Z,822.00
2023-04-12T05:13:40.901Z,826.00
2023-04-12T05:14:46.626Z,827.00
2023-04-12T05:15:40.928Z,829.00
2023-04-12T05:16:39.999Z,833.00
2023-04-12T05:17:39.945Z,834.00
2023-04-12T05:18:40.916Z,834.00
2023-04-12T05:19:39.893Z,838.00
2023-04-12T05:20:40.885Z,839.00
2023-04-12T05:21:39.884Z,842.00
2023-04-12T05:22:40.884Z,842.00
2023-04-12T05:23:39.879Z,842.00
2023-04-12T05:24:40.846Z,842.00
2023-04-12T05:25:39.891Z,840.00
2023-04-12T05:26:40.857Z,842.00
2023-04-12T05:27:40.842Z,843.00
2023-04-12T05:28:40.811Z,843.00
2023-04-12T05:29:39.803Z,846.00
2023-04-12T05:30:39.827Z,850.00
2023-04-12T05:31:40.837Z,852.00
2023-04-12T05:32:39.865Z,863.00
2023-04-12T05:33:39.800Z,864.00
2023-04-12T05:34:39.780Z,872.00
2023-04-12T05:35:40.802Z,874.00
2023-04-12T05:36:39.794Z,889.00
2023-04-12T05:37:40.803Z,897.00
2023-04-12T05:38:40.777Z,905.00
2023-04-12T05:39:40.750Z,910.00
2023-04-12T05:40:40.917Z,911.00
2023-04-12T05:41:40.754Z,919.00
2023-04-12T05:42:39.728Z,933.00
2023-04-12T05:43:40.753Z,949.00
2023-04-12T05:44:39.767Z,964.00
2023-04-12T05:45:40.729Z,979.00
2023-04-12T05:46:40.866Z,983.00
2023-04-12T05:47:40.726Z,987.00
2023-04-12T05:48:40.728Z,1005.00
2023-04-12T05:49:39.747Z,1038.00
2023-04-12T05:50:39.797Z,1042.00
2023-04-12T05:51:41.596Z,1052.00
2023-04-12T05:52:40.187Z,1052.00
2023-04-12T05:53:39.955Z,1056.00
2023-04-12T05:54:41.025Z,1059.00
2023-04-12T05:55:41.067Z,1068.00
2023-04-12T05:56:41.160Z,1105.00
2023-04-12T05:57:40.218Z,1110.00
2023-04-12T05:58:40.260Z,1132.00
2023-04-12T05:59:41.316Z,1153.00
2023-04-12T06:00:41.301Z,1243.00
2023-04-12T06:01:40.293Z,1227.00
2023-04-12T06:02:40.824Z,1239.00
2023-04-12T06:03:40.615Z,1237.00
2023-04-12T06:04:50.221Z,1227.00
2023-04-12T06:05:41.473Z,1224.00
2023-04-12T06:06:41.294Z,1203.00
2023-04-12T06:07:41.346Z,1161.00
2023-04-12T06:08:41.297Z,1117.00
2023-04-12T06:09:40.307Z,1107.00
2023-04-12T06:10:40.293Z,1100.00
2023-04-12T06:11:41.297Z,1094.00
2023-04-12T06:12:41.300Z,1090.00
2023-04-12T06:13:41.249Z,1089.00
2023-04-12T06:14:41.251Z,1083.00
2023-04-12T06:15:41.313Z,1072.00
2023-04-12T06:16:42.071Z,1066.00
2023-04-12T06:17:41.324Z,1074.00
2023-04-12T06:18:41.226Z,1072.00
2023-04-12T06:19:41.208Z,1073.00
2023-04-12T06:20:40.236Z,1077.00
2023-04-12T06:21:41.208Z,1078.00
2023-04-12T06:22:40.259Z,1083.00
2023-04-12T06:23:41.204Z,1084.00
2023-04-12T06:24:41.183Z,1086.00
2023-04-12T06:25:41.174Z,1092.00
2023-04-12T06:26:41.240Z,1089.00
2023-04-12T06:27:40.358Z,1092.00
2023-04-12T06:28:41.174Z,1096.00
2023-04-12T06:29:40.125Z,1083.00
2023-04-12T06:30:40.121Z,1096.00
2023-04-12T06:31:40.162Z,1098.00
2023-04-12T06:32:41.160Z,1097.00
2023-04-12T06:33:41.172Z,1101.00
2023-04-12T06:34:41.214Z,1130.00
2023-04-12T06:35:41.258Z,1151.00
2023-04-12T06:36:40.274Z,1157.00
2023-04-12T06:37:41.298Z,1156.00
2023-04-12T06:38:42.116Z,1153.00
2023-04-12T06:39:40.318Z,1153.00
2023-04-12T06:40:41.311Z,1156.00
2023-04-12T06:41:40.334Z,1144.00
2023-04-12T06:42:41.337Z,1115.00
2023-04-12T06:43:40.461Z,1095.00
2023-04-12T06:44:40.344Z,1092.00
2023-04-12T06:45:41.287Z,1097.00
2023-04-12T06:46:40.320Z,1085.00
2023-04-12T06:47:41.649Z,1146.00
2023-04-12T06:48:41.401Z,1138.00
2023-04-12T06:49:40.244Z,1130.00
2023-04-12T06:50:41.256Z,1167.00
2023-04-12T06:51:41.246Z,1187.00
2023-04-12T06:52:41.642Z,1293.00
2023-04-12T06:53:41.219Z,1649.00
2023-04-12T06:54:42.397Z,1746.00
2023-04-12T06:55:41.365Z,1758.00
2023-04-12T06:56:41.446Z,1811.00
2023-04-12T06:57:40.660Z,1791.00
2023-04-12T06:58:41.216Z,1771.00
2023-04-12T06:59:41.316Z,1705.00
2023-04-12T07:00:41.311Z,1716.00
2023-04-12T07:01:42.080Z,1686.00
2023-04-12T07:02:41.635Z,1629.00
2023-04-12T07:03:41.407Z,1599.00
2023-04-12T07:04:41.315Z,1590.00
2023-04-12T07:05:41.299Z,1535.00
2023-04-12T07:06:41.278Z,1497.00
2023-04-12T07:07:40.269Z,1465.00
2023-04-12T07:08:41.299Z,1393.00
2023-04-12T07:09:41.275Z,1359.00
2023-04-12T07:10:41.310Z,1332.00
2023-04-12T07:11:41.300Z,1306.00
2023-04-12T07:12:41.250Z,1284.00
2023-04-12T07:13:40.437Z,1271.00
2023-04-12T07:14:40.391Z,1271.00
2023-04-12T07:15:41.293Z,1260.00
2023-04-12T07:16:40.244Z,1251.00
2023-04-12T07:17:41.246Z,1246.00
2023-04-12T07:18:41.212Z,1235.00
2023-04-12T07:19:41.194Z,1226.00
2023-04-12T07:20:41.176Z,1224.00
2023-04-12T07:21:40.184Z,1221.00
2023-04-12T07:22:41.159Z,1225.00
2023-04-12T07:23:40.157Z,1315.00
2023-04-12T07:24:41.168Z,1288.00
2023-04-12T07:25:40.158Z,1291.00
2023-04-12T07:26:41.142Z,1352.00
2023-04-12T07:27:40.148Z,1357.00
2023-04-12T07:28:41.173Z,1352.00
2023-04-12T07:29:40.167Z,1340.00
2023-04-12T07:30:40.324Z,1340.00
2023-04-12T07:31:41.120Z,1340.00
2023-04-12T07:32:41.285Z,1336.00
2023-04-12T07:33:42.950Z,1335.00
2023-04-12T07:34:41.165Z,1336.00
2023-04-12T07:35:41.150Z,1319.00
2023-04-12T07:36:41.081Z,1289.00
2023-04-12T07:37:41.088Z,1293.00
2023-04-12T07:38:41.097Z,1306.00
2023-04-12T07:39:41.141Z,1307.00
2023-04-12T07:40:40.041Z,1294.00
2023-04-12T07:41:40.055Z,1280.00
2023-04-12T07:42:41.081Z,1271.00
2023-04-12T07:43:40.544Z,1279.00
2023-04-12T07:44:41.014Z,1270.00
2023-04-12T07:45:41.023Z,1252.00
2023-04-12T07:46:41.071Z,1287.00
2023-04-12T07:47:40.172Z,1370.00
2023-04-12T07:48:40.983Z,1453.00
2023-04-12T07:49:41.000Z,1532.00
2023-04-12T07:50:41.005Z,1678.00
2023-04-12T07:51:39.982Z,1778.00
2023-04-12T07:52:41.152Z,1797.00
2023-04-12T07:53:39.997Z,1818.00
2023-04-12T07:54:39.942Z,1800.00
2023-04-12T07:55:40.933Z,1785.00
2023-04-12T07:56:40.957Z,1779.00
2023-04-12T07:57:39.954Z,1773.00
2023-04-12T07:58:41.010Z,1723.00
2023-04-12T07:59:39.933Z,1707.00
2023-04-12T08:00:40.900Z,1687.00
2023-04-12T08:01:40.959Z,1656.00
2023-04-12T08:02:41.103Z,1626.00
2023-04-12T08:03:41.033Z,1606.00
2023-04-12T08:04:40.896Z,1595.00
2023-04-12T08:05:40.969Z,1565.00
2023-04-12T08:06:40.867Z,1530.00
2023-04-12T08:07:40.874Z,1506.00
2023-04-12T08:08:40.852Z,1497.00
2023-04-12T08:09:40.870Z,1487.00
2023-04-12T08:10:40.849Z,1476.00
2023-04-12T08:11:40.822Z,1467.00
2023-04-12T08:12:40.834Z,1465.00
2023-04-12T08:13:40.824Z,1461.00
2023-04-12T08:14:41.039Z,1448.00
2023-04-12T08:15:40.796Z,1440.00
2023-04-12T08:16:39.782Z,1436.00
2023-04-12T08:17:39.820Z,1426.00
2023-04-12T08:18:40.789Z,1417.00
2023-04-12T08:19:39.783Z,1407.00
2023-04-12T08:20:40.756Z,1393.00
2023-04-12T08:21:39.756Z,1389.00
2023-04-12T08:22:39.754Z,1385.00
2023-04-12T08:23:39.730Z,1379.00
2023-04-12T08:24:40.719Z,1372.00
2023-04-12T08:25:40.716Z,1364.00
2023-04-12T08:26:40.733Z,1353.00
2023-04-12T08:27:39.731Z,1344.00
2023-04-12T08:28:40.692Z,1344.00
2023-04-12T08:29:39.681Z,1337.00
2023-04-12T08:30:39.676Z,1335.00
2023-04-12T08:31:39.698Z,1331.00
2023-04-12T08:32:39.717Z,1325.00
2023-04-12T08:33:40.747Z,1321.00
2023-04-12T08:34:40.697Z,1310.00
2023-04-12T08:35:40.657Z,1299.00
2023-04-12T08:36:40.629Z,1297.00
2023-04-12T08:37:39.629Z,1292.00
2023-04-12T08:38:45.450Z,1281.00
2023-04-12T08:39:40.600Z,1273.00
2023-04-12T08:40:40.614Z,1267.00
2023-04-12T08:41:39.638Z,1268.00
2023-04-12T08:42:39.781Z,1325.00
2023-04-12T08:43:40.604Z,1379.00
2023-04-12T08:44:40.581Z,1448.00
2023-04-12T08:45:40.557Z,1457.00
2023-04-12T08:46:40.614Z,1467.00
2023-04-12T08:47:40.744Z,1539.00
2023-04-12T08:48:40.564Z,1541.00
2023-04-12T08:49:40.608Z,1804.00
2023-04-12T08:50:40.561Z,1753.00
2023-04-12T08:51:40.516Z,1749.00
2023-04-12T08:52:40.574Z,1890.00
2023-04-12T08:53:40.528Z,1905.00
2023-04-12T08:54:40.519Z,1988.00
2023-04-12T08:55:40.518Z,1949.00
2023-04-12T08:56:40.524Z,2040.00
2023-04-12T08:57:40.702Z,2272.00
2023-04-12T08:58:40.559Z,2425.00
2023-04-12T08:59:39.629Z,2422.00
2023-04-12T09:00:40.562Z,2311.00
2023-04-12T09:01:40.743Z,2064.00
2023-04-12T09:02:40.734Z,2051.00
2023-04-12T09:03:40.758Z,2071.00
2023-04-12T09:04:40.755Z,1961.00
2023-04-12T09:05:40.645Z,1860.00
2023-04-12T09:06:39.647Z,1855.00
2023-04-12T09:07:40.638Z,1828.00
2023-04-12T09:08:40.648Z,1709.00
2023-04-12T09:09:40.687Z,1666.00
2023-04-12T09:10:40.665Z,1596.00
2023-04-12T09:11:39.738Z,1501.00
2023-04-12T09:12:40.715Z,1503.00
2023-04-12T09:13:40.718Z,1378.00
2023-04-12T09:14:39.777Z,1326.00
2023-04-12T09:15:39.758Z,1230.00
2023-04-12T09:16:40.844Z,1247.00
2023-04-12T09:17:39.876Z,1169.00
2023-04-12T09:18:39.792Z,1131.00
2023-04-12T09:19:40.822Z,1082.00
2023-04-12T09:20:40.815Z,1102.00
2023-04-12T09:21:40.844Z,1026.00
2023-04-12T09:22:39.949Z,1037.00
2023-04-12T09:23:41.052Z,1038.00
2023-04-12T09:24:40.929Z,955.00
2023-04-12T09:25:40.923Z,1006.00
2023-04-12T09:26:41.013Z,983.00
2023-04-12T09:27:41.060Z,977.00
2023-04-12T09:28:40.957Z,999.00
2023-04-12T09:29:40.963Z,995.00
2023-04-12T09:30:40.966Z,987.00
2023-04-12T09:31:40.054Z,1072.00
2023-04-12T09:32:40.034Z,1092.00
2023-04-12T09:33:40.999Z,1125.00
2023-04-12T09:34:40.969Z,1148.00
2023-04-12T09:35:40.149Z,1166.00
2023-04-12T09:36:40.998Z,1173.00
2023-04-12T09:37:41.034Z,1318.00
2023-04-12T09:38:41.119Z,1308.00
2023-04-12T09:39:41.002Z,1325.00
2023-04-12T09:40:40.044Z,1347.00
2023-04-12T09:41:41.146Z,1484.00
2023-04-12T09:42:41.048Z,1502.00
2023-04-12T09:43:41.038Z,1459.00
2023-04-12T09:44:41.161Z,1453.00
2023-04-12T09:45:41.080Z,1452.00
2023-04-12T09:46:41.804Z,1429.00
2023-04-12T09:47:41.412Z,1450.00
2023-04-12T09:48:41.201Z,1584.00
2023-04-12T09:49:41.309Z,1680.00
2023-04-12T09:50:41.272Z,1664.00
2023-04-12T09:51:41.417Z,1814.00
2023-04-12T09:52:44.833Z,1819.00
2023-04-12T09:53:40.430Z,1816.00
2023-04-12T09:54:41.450Z,1599.00
2023-04-12T09:55:40.297Z,1476.00
2023-04-12T09:56:40.392Z,1360.00
2023-04-12T09:57:40.340Z,1417.00
2023-04-12T09:58:40.331Z,1471.00
2023-04-12T09:59:41.613Z,1488.00
2023-04-12T10:00:41.295Z,1484.00
2023-04-12T10:01:41.402Z,1485.00
2023-04-12T10:02:41.570Z,1480.00
2023-04-12T10:03:41.388Z,1477.00
2023-04-12T10:04:40.334Z,1472.00
2023-04-12T10:05:41.248Z,1468.00
2023-04-12T10:06:41.260Z,1463.00
2023-04-12T10:07:40.867Z,1459.00
2023-04-12T10:08:41.242Z,1455.00
2023-04-12T10:09:41.223Z,1451.00
2023-04-12T10:10:41.255Z,1444.00
2023-04-12T10:11:41.187Z,1453.00
2023-04-12T10:12:40.198Z,1464.00
2023-04-12T10:13:40.180Z,1472.00
2023-04-12T10:14:41.300Z,1480.00
2023-04-12T10:15:41.381Z,1478.00
2023-04-12T10:16:41.326Z,1476.00
2023-04-12T10:17:41.215Z,1488.00
2023-04-12T10:18:40.256Z,1503.00
2023-04-12T10:19:41.282Z,1481.00
2023-04-12T10:20:40.324Z,1483.00
2023-04-12T10:21:41.137Z,1477.00
2023-04-12T10:22:41.201Z,1470.00
2023-04-12T10:23:41.137Z,1457.00
2023-04-12T10:24:40.156Z,1445.00
2023-04-12T10:25:40.151Z,1445.00
2023-04-12T10:26:41.109Z,1435.00
2023-04-12T10:27:41.097Z,1430.00
2023-04-12T10:28:40.101Z,1426.00
2023-04-12T10:29:41.113Z,1426.00
2023-04-12T10:30:41.101Z,1424.00
2023-04-12T10:31:40.145Z,1428.00
2023-04-12T10:32:40.106Z,1426.00
2023-04-12T10:33:41.639Z,1433.00
2023-04-12T10:34:40.218Z,1437.00
2023-04-12T10:35:40.081Z,1439.00
2023-04-12T10:36:41.375Z,1437.00
2023-04-12T10:37:40.044Z,1441.00
2023-04-12T10:38:41.036Z,1440.00
2023-04-12T10:39:41.018Z,1444.00
2023-04-12T10:40:40.046Z,1455.00
2023-04-12T10:41:41.249Z,1573.00
2023-04-12T10:42:40.161Z,1556.00
2023-04-12T10:43:41.256Z,1672.00
2023-04-12T10:44:41.013Z,1567.00
2023-04-12T10:45:40.982Z,2049.00
2023-04-12T10:46:41.053Z,1990.00
2023-04-12T10:47:40.975Z,2029.00
2023-04-12T10:48:40.268Z,2036.00
2023-04-12T10:49:39.939Z,2157.00
2023-04-12T10:50:40.951Z,2198.00
2023-04-12T10:51:39.931Z,2025.00
2023-04-12T10:52:40.991Z,1953.00
2023-04-12T10:53:40.902Z,1894.00
2023-04-12T10:54:45.327Z,1865.00
2023-04-12T10:55:40.965Z,1844.00
2023-04-12T10:56:39.943Z,1813.00
2023-04-12T10:57:40.002Z,1790.00
2023-04-12T10:58:40.113Z,1764.00
2023-04-12T10:59:47.648Z,1747.00
2023-04-12T11:00:41.196Z,1731.00
2023-04-12T11:01:41.228Z,1714.00
2023-04-12T11:02:40.297Z,1694.00
2023-04-12T11:03:41.425Z,1677.00
2023-04-12T11:04:49.005Z,1665.00
2023-04-12T11:05:40.243Z,1661.00
2023-04-12T11:06:41.068Z,1652.00
2023-04-12T11:07:41.080Z,1647.00
2023-04-12T11:08:41.137Z,1639.00
2023-04-12T11:09:41.158Z,1629.00
2023-04-12T11:10:41.101Z,1631.00
2023-04-12T11:11:41.206Z,1635.00
2023-04-12T11:12:41.045Z,1631.00
2023-04-12T11:13:41.036Z,1635.00
2023-04-12T11:14:41.076Z,1630.00
2023-04-12T11:15:41.009Z,1627.00
2023-04-12T11:16:41.033Z,1624.00
2023-04-12T11:17:40.132Z,1617.00
2023-04-12T11:18:41.042Z,1619.00
2023-04-12T11:19:40.092Z,1619.00
2023-04-12T11:20:40.223Z,1621.00
2023-04-12T11:21:40.961Z,1622.00
2023-04-12T11:22:41.142Z,1623.00
2023-04-12T11:23:40.957Z,1630.00
2023-04-12T11:24:39.937Z,1638.00
2023-04-12T11:25:40.942Z,1640.00
2023-04-12T11:26:40.164Z,1692.00
2023-04-12T11:27:39.900Z,1703.00
2023-04-12T11:28:41.084Z,1708.00
2023-04-12T11:29:39.901Z,1719.00
2023-04-12T11:30:40.933Z,1739.00
2023-04-12T11:31:40.951Z,1739.00
2023-04-12T11:32:41.368Z,1737.00
2023-04-12T11:33:41.069Z,1720.00
2023-04-12T11:34:39.932Z,1716.00
2023-04-12T11:35:40.163Z,1719.00
2023-04-12T11:36:40.024Z,1785.00
2023-04-12T11:37:41.022Z,1800.00
2023-04-12T11:38:41.207Z,1807.00
2023-04-12T11:39:41.120Z,1810.00
2023-04-12T11:40:40.182Z,1817.00
2023-04-12T11:41:40.234Z,1817.00
2023-04-12T11:42:40.281Z,1811.00
2023-04-12T11:43:41.426Z,1809.00
2023-04-12T11:45:41.460Z,1802.00
2023-04-12T11:46:41.436Z,1796.00
2023-04-12T11:47:41.424Z,1791.00
2023-04-12T11:48:41.430Z,1793.00
2023-04-12T11:49:40.399Z,1784.00
2023-04-12T11:50:40.394Z,1775.00
2023-04-12T11:51:41.375Z,1765.00
2023-04-12T11:52:41.502Z,1757.00
2023-04-12T11:53:41.372Z,1732.00
2023-04-12T11:54:41.375Z,1715.00
2023-04-12T11:55:40.360Z,1698.00
2023-04-12T11:56:41.355Z,1671.00
2023-04-12T11:57:41.336Z,1655.00
2023-04-12T11:58:40.413Z,1642.00
2023-04-12T11:59:41.386Z,1629.00
2023-04-12T12:00:41.480Z,1607.00
2023-04-12T12:01:41.341Z,1593.00
2023-04-12T12:02:46.577Z,1584.00
2023-04-12T12:03:41.441Z,1540.00
2023-04-12T12:04:41.667Z,1538.00
2023-04-12T12:05:42.106Z,1544.00
2023-04-12T12:06:43.014Z,1635.00
2023-04-12T12:07:41.947Z,1472.00
2023-04-12T12:08:41.288Z,1316.00
2023-04-12T12:09:40.268Z,1428.00
2023-04-12T12:10:46.826Z,1556.00
2023-04-12T12:11:41.369Z,1740.00
2023-04-12T12:12:41.597Z,1993.00
2023-04-12T12:13:43.039Z,1945.00
2023-04-12T12:14:41.248Z,1747.00
2023-04-12T12:15:40.283Z,1696.00
2023-04-12T12:16:41.228Z,1531.00